| time (UTC) | temp F | wind direction | speed MPH | gust MPH | rain 1hr in | rain 24hr in | rain mn in | humidity % | barometer mb |
| 20260509123048 | 64 | 271 | 1.0 | 3.0 | 0.00 | 0.00 | 0.00 | 98 | 1011.2 |
| 20260509121538 | 63 | 0 | 0.0 | 2.0 | 0.00 | 0.00 | 0.00 | 97 | 1010.9 |
| 20260509120038 | 63 | 0 | 0.0 | 3.0 | 0.00 | 0.00 | 0.00 | 96 | 1010.7 |
| 20260509114537 | 64 | 0 | 0.0 | 0.0 | 0.00 | 0.00 | 0.00 | 97 | 1010.1 |
| 20260509113039 | 65 | 0 | 0.0 | 0.0 | 0.00 | 0.00 | 0.00 | 97 | 1009.8 |
| 20260509111540 | 65 | 0 | 0.0 | 2.0 | 0.00 | 0.00 | 0.00 | 97 | 1009.8 |
| 20260509110040 | 64 | 0 | 0.0 | 1.0 | 0.00 | 0.00 | 0.00 | 96 | 1009.7 |
| 20260509104540 | 65 | 355 | 0.0 | 0.0 | 0.00 | 0.00 | 0.00 | 96 | 1009.6 |
| 20260509103046 | 65 | 0 | 0.0 | 2.0 | 0.00 | 0.00 | 0.00 | 96 | 1009.6 |
| 20260509101537 | 65 | 338 | 3.0 | 5.0 | 0.00 | 0.00 | 0.00 | 96 | 1009.3 |
| 20260509100037 | 65 | 352 | 3.0 | 6.0 | 0.00 | 0.00 | 0.00 | 95 | 1009.0 |
| 20260509094538 | 66 | 345 | 4.0 | 5.0 | 0.00 | 0.00 | 0.00 | 94 | 1009.1 |
| 20260509093041 | 67 | 18 | 4.0 | 6.0 | 0.00 | 0.00 | 0.00 | 94 | 1008.9 |
| 20260509091538 | 67 | 326 | 3.0 | 5.0 | 0.00 | 0.00 | 0.00 | 93 | 1009.0 |
| 20260509090047 | 68 | 19 | 4.0 | 7.0 | 0.00 | 0.00 | 0.00 | 92 | 1008.9 |
| 20260509084541 | 69 | 17 | 5.0 | 7.0 | 0.00 | 0.00 | 0.00 | 91 | 1009.2 |
| 20260509083038 | 69 | 21 | 6.0 | 8.0 | 0.00 | 0.00 | 0.00 | 91 | 1009.0 |
| 20260509081535 | 70 | 53 | 1.0 | 6.0 | 0.00 | 0.00 | 0.00 | 90 | 1009.0 |
| 20260509080042 | 70 | 34 | 1.0 | 8.0 | 0.00 | 0.00 | 0.00 | 90 | 1009.1 |
| 20260509074539 | 70 | 64 | 3.0 | 10.0 | 0.00 | 0.00 | 0.00 | 90 | 1009.0 |
| 20260509073041 | 70 | 28 | 3.0 | 13.0 | 0.00 | 0.00 | 0.00 | 91 | 1008.8 |
| 20260509071541 | 69 | 76 | 6.0 | 16.0 | 0.00 | 0.00 | 0.00 | 91 | 1008.4 |
| 20260509070043 | 69 | 33 | 3.0 | 7.0 | 0.00 | 0.00 | 0.00 | 91 | 1008.2 |
| 20260509064543 | 69 | 156 | 7.0 | 11.0 | 0.00 | 0.00 | 0.00 | 90 | 1008.4 |
| 20260509063037 | 70 | 0 | 0.0 | 7.0 | 0.00 | 0.00 | 0.00 | 90 | 1009.7 |
| 20260509061538 | 70 | 0 | 0.0 | 6.0 | 0.00 | 0.00 | 0.00 | 90 | 1009.8 |
| 20260509060040 | 70 | 0 | 0.0 | 3.0 | 0.00 | 0.00 | 0.00 | 89 | 1010.4 |
| 20260509054551 | 70 | 0 | 0.0 | 7.0 | 0.00 | 0.00 | 0.00 | 88 | 1010.4 |
| 20260509053037 | 70 | 250 | 3.0 | 17.0 | 0.00 | 0.00 | 0.00 | 88 | 1010.6 |
| 20260509051539 | 69 | 314 | 4.0 | 15.0 | 0.00 | 0.00 | 0.00 | 89 | 1010.0 |
| 20260509050052 | 69 | 221 | 12.0 | 19.0 | 0.00 | 0.00 | 0.00 | 90 | 1009.3 |
| 20260509044535 | 69 | 124 | 3.0 | 13.0 | 0.00 | 0.00 | 0.00 | 90 | 1009.3 |
| 20260509043037 | 69 | 156 | 8.0 | 12.0 | 0.00 | 0.00 | 0.00 | 89 | 1010.5 |
| 20260509041538 | 69 | 233 | 4.0 | 7.0 | 0.00 | 0.00 | 0.00 | 88 | 1011.2 |
| 20260509040037 | 69 | 0 | 0.0 | 5.0 | 0.00 | 0.00 | 0.00 | 88 | 1011.8 |
| 20260509034539 | 69 | 334 | 2.0 | 4.0 | 0.00 | 0.00 | 0.00 | 87 | 1011.2 |
| 20260509033038 | 70 | 141 | 3.0 | 11.0 | 0.00 | 0.00 | 0.00 | 86 | 1009.7 |
| 20260509031551 | 70 | 168 | 6.0 | 11.0 | 0.00 | 0.00 | 0.00 | 86 | 1009.1 |
| 20260509030040 | 70 | 146 | 0.0 | 4.0 | 0.00 | 0.00 | 0.00 | 85 | 1009.7 |
| 20260509024541 | 70 | 0 | 0.0 | 4.0 | 0.00 | 0.00 | 0.00 | 84 | 1009.7 |
| 20260509023039 | 70 | 88 | 3.0 | 6.0 | 0.00 | 0.00 | 0.00 | 84 | 1009.1 |
| 20260509021537 | 70 | 150 | 8.0 | 13.0 | 0.00 | 0.00 | 0.00 | 84 | 1008.3 |
| 20260509020037 | 71 | 0 | 0.0 | 1.0 | 0.00 | 0.00 | 0.00 | 83 | 1009.6 |
| 20260509014539 | 71 | 18 | 1.0 | 3.0 | 0.00 | 0.00 | 0.00 | 83 | 1009.4 |
| 20260509013041 | 71 | 118 | 0.0 | 3.0 | 0.00 | 0.00 | 0.00 | 82 | 1008.5 |
| 20260509011547 | 72 | 0 | 1.0 | 11.0 | 0.00 | 0.00 | 0.00 | 80 | 1007.7 |
| 20260509010044 | 73 | 144 | 4.0 | 13.0 | 0.00 | 0.00 | 0.00 | 79 | 1007.5 |
| 20260509004548 | 74 | 150 | 6.0 | 13.0 | 0.00 | 0.00 | 0.00 | 77 | 1007.8 |
| 20260509003040 | 75 | 184 | 6.0 | 11.0 | 0.00 | 0.00 | 0.00 | 76 | 1008.1 |
| 20260509001535 | 76 | 143 | 7.0 | 13.0 | 0.00 | 0.00 | 0.00 | 74 | 1008.0 |
| 20260509000039 | 76 | 158 | 6.0 | 12.0 | 0.00 | 0.00 | 0.00 | 72 | 1007.6 |
| 20260508234540 | 77 | 174 | 4.0 | 12.0 | 0.00 | 0.00 | 0.00 | 71 | 1007.6 |
| 20260508233038 | 77 | 158 | 7.0 | 15.0 | 0.00 | 0.00 | 0.00 | 72 | 1007.5 |
| 20260508231539 | 78 | 124 | 3.0 | 14.0 | 0.00 | 0.00 | 0.00 | 72 | 1007.6 |
| 20260508230037 | 79 | 160 | 7.0 | 16.0 | 0.00 | 0.00 | 0.00 | 69 | 1007.7 |
| 20260508224537 | 80 | 90 | 4.0 | 12.0 | 0.00 | 0.00 | 0.00 | 68 | 1007.8 |
| 20260508223045 | 80 | 122 | 3.0 | 13.0 | 0.00 | 0.00 | 0.00 | 68 | 1007.9 |
| 20260508221540 | 80 | 155 | 6.0 | 13.0 | 0.00 | 0.00 | 0.00 | 67 | 1008.0 |
| 20260508220043 | 80 | 162 | 6.0 | 12.0 | 0.00 | 0.00 | 0.00 | 66 | 1008.0 |
| 20260508214537 | 80 | 134 | 6.0 | 13.0 | 0.00 | 0.00 | 0.00 | 67 | 1008.1 |
| 20260508213046 | 80 | 0 | 2.0 | 14.0 | 0.00 | 0.00 | 0.00 | 66 | 1008.1 |
| 20260508211543 | 80 | 180 | 9.0 | 15.0 | 0.00 | 0.00 | 0.00 | 64 | 1008.6 |
| 20260508210044 | 80 | 151 | 6.0 | 18.0 | 0.00 | 0.00 | 0.00 | 66 | 1008.9 |
| 20260508204541 | 80 | 163 | 7.0 | 12.0 | 0.00 | 0.00 | 0.00 | 63 | 1009.1 |
| 20260508203045 | 80 | 186 | 6.0 | 16.0 | 0.00 | 0.00 | 0.00 | 66 | 1009.3 |
| 20260508201546 | 79 | 0 | 4.0 | 11.0 | 0.00 | 0.00 | 0.00 | 66 | 1009.4 |
| 20260508200042 | 78 | 132 | 5.0 | 17.0 | 0.00 | 0.00 | 0.00 | 67 | 1009.7 |
| 20260508194538 | 78 | 142 | 8.0 | 16.0 | 0.00 | 0.00 | 0.00 | 67 | 1009.9 |
| 20260508193040 | 77 | 153 | 7.0 | 16.0 | 0.00 | 0.00 | 0.00 | 67 | 1010.1 |
| 20260508191537 | 77 | 190 | 9.0 | 13.0 | 0.00 | 0.00 | 0.00 | 68 | 1010.3 |
| 20260508190043 | 76 | 139 | 4.0 | 14.0 | 0.00 | 0.00 | 0.00 | 65 | 1010.5 |
| 20260508184547 | 76 | 146 | 6.0 | 11.0 | 0.00 | 0.00 | 0.00 | 67 | 1010.8 |
| 20260508183041 | 75 | 105 | 5.0 | 12.0 | 0.00 | 0.00 | 0.00 | 66 | 1011.1 |
| 20260508181604 | 74 | 219 | 5.0 | 11.0 | 0.00 | 0.00 | 0.00 | 65 | 1011.4 |
| 20260508180045 | 74 | 136 | 2.0 | 11.0 | 0.00 | 0.00 | 0.00 | 66 | 1011.6 |
| 20260508174538 | 73 | 0 | 1.0 | 12.0 | 0.00 | 0.00 | 0.00 | 68 | 1011.9 |
| 20260508173040 | 73 | 133 | 5.0 | 12.0 | 0.00 | 0.00 | 0.00 | 68 | 1012.1 |
| 20260508171543 | 73 | 179 | 3.0 | 11.0 | 0.00 | 0.00 | 0.00 | 70 | 1012.4 |
| 20260508170039 | 71 | 136 | 7.0 | 12.0 | 0.00 | 0.00 | 0.00 | 71 | 1012.8 |
| 20260508164542 | 70 | 0 | 5.0 | 12.0 | 0.00 | 0.00 | 0.00 | 72 | 1013.0 |
| 20260508163037 | 71 | 155 | 7.0 | 14.0 | 0.00 | 0.00 | 0.00 | 70 | 1013.4 |
| 20260508161538 | 71 | 153 | 2.0 | 9.0 | 0.00 | 0.00 | 0.00 | 72 | 1013.4 |
| 20260508160044 | 68 | 174 | 5.0 | 13.0 | 0.00 | 0.00 | 0.00 | 78 | 1013.6 |
| 20260508154550 | 67 | 167 | 4.0 | 13.0 | 0.00 | 0.00 | 0.00 | 83 | 1013.7 |
| 20260508153037 | 65 | 155 | 8.0 | 14.0 | 0.00 | 0.00 | 0.00 | 88 | 1013.8 |
| 20260508151538 | 63 | 164 | 5.0 | 8.0 | 0.00 | 0.00 | 0.00 | 93 | 1014.0 |
| 20260508150043 | 63 | 0 | 3.0 | 7.0 | 0.00 | 0.00 | 0.00 | 94 | 1014.0 |
| 20260508144539 | 62 | 0 | 1.0 | 4.0 | 0.00 | 0.00 | 0.00 | 94 | 1014.1 |
| 20260508143039 | 62 | 162 | 2.0 | 5.0 | 0.00 | 0.00 | 0.00 | 91 | 1014.4 |
| 20260508141547 | 62 | 164 | 4.0 | 10.0 | 0.00 | 0.00 | 0.00 | 89 | 1014.4 |
| 20260508140038 | 62 | 143 | 5.0 | 9.0 | 0.00 | 0.00 | 0.00 | 87 | 1014.3 |
| 20260508134537 | 62 | 124 | 3.0 | 9.0 | 0.00 | 0.00 | 0.00 | 89 | 1014.4 |
| 20260508133040 | 61 | 152 | 2.0 | 6.0 | 0.00 | 0.00 | 0.00 | 90 | 1014.5 |
| 20260508131540 | 60 | 157 | 3.0 | 7.0 | 0.00 | 0.00 | 0.00 | 90 | 1014.6 |
| 20260508130042 | 60 | 167 | 3.0 | 6.0 | 0.00 | 0.00 | 0.00 | 90 | 1014.9 |
| 20260508124536 | 59 | 156 | 2.0 | 6.0 | 0.00 | 0.00 | 0.00 | 91 | 1014.6 |